sensor_id;sensor_type;location;lat;lon;timestamp;P1;durP1;ratioP1;P2;durP2;ratioP2
31091;SDS011;67728;53.122;12.776;2023-03-23T00:00:54;321.67;;;66.80;;
31091;SDS011;67728;53.122;12.776;2023-03-23T00:02:27;323.33;;;68.33;;
31091;SDS011;67728;53.122;12.776;2023-03-23T00:04:02;323.10;;;68.90;;
31091;SDS011;67728;53.122;12.776;2023-03-23T00:05:35;325.10;;;69.30;;
31091;SDS011;67728;53.122;12.776;2023-03-23T00:07:07;326.02;;;69.88;;
31091;SDS011;67728;53.122;12.776;2023-03-23T00:08:39;330.25;;;70.78;;
31091;SDS011;67728;53.122;12.776;2023-03-23T00:10:15;327.15;;;70.50;;
31091;SDS011;67728;53.122;12.776;2023-03-23T00:11:46;326.77;;;69.10;;
31091;SDS011;67728;53.122;12.776;2023-03-23T00:13:18;326.73;;;69.63;;
31091;SDS011;67728;53.122;12.776;2023-03-23T00:14:49;325.42;;;69.07;;
31091;SDS011;67728;53.122;12.776;2023-03-23T00:16:24;325.85;;;68.35;;
31091;SDS011;67728;53.122;12.776;2023-03-23T00:18:01;327.13;;;68.43;;
31091;SDS011;67728;53.122;12.776;2023-03-23T00:19:35;324.83;;;68.25;;
31091;SDS011;67728;53.122;12.776;2023-03-23T00:21:15;324.35;;;68.95;;
31091;SDS011;67728;53.122;12.776;2023-03-23T00:22:47;328.83;;;69.80;;
31091;SDS011;67728;53.122;12.776;2023-03-23T00:24:18;323.23;;;67.68;;
31091;SDS011;67728;53.122;12.776;2023-03-23T00:25:51;325.65;;;69.40;;
31091;SDS011;67728;53.122;12.776;2023-03-23T00:27:26;324.58;;;69.63;;
31091;SDS011;67728;53.122;12.776;2023-03-23T00:28:58;323.60;;;68.20;;
31091;SDS011;67728;53.122;12.776;2023-03-23T00:30:30;323.45;;;69.00;;
31091;SDS011;67728;53.122;12.776;2023-03-23T00:32:02;326.52;;;69.88;;
31091;SDS011;67728;53.122;12.776;2023-03-23T00:33:35;324.47;;;69.00;;
31091;SDS011;67728;53.122;12.776;2023-03-23T00:35:10;329.98;;;71.13;;
31091;SDS011;67728;53.122;12.776;2023-03-23T00:36:42;326.13;;;69.78;;
31091;SDS011;67728;53.122;12.776;2023-03-23T00:38:14;326.95;;;69.55;;
31091;SDS011;67728;53.122;12.776;2023-03-23T00:39:46;330.20;;;70.63;;
31091;SDS011;67728;53.122;12.776;2023-03-23T00:41:18;322.80;;;68.15;;
31091;SDS011;67728;53.122;12.776;2023-03-23T00:42:49;327.58;;;69.47;;
31091;SDS011;67728;53.122;12.776;2023-03-23T00:44:21;323.35;;;68.00;;
31091;SDS011;67728;53.122;12.776;2023-03-23T00:45:53;324.15;;;68.43;;
31091;SDS011;67728;53.122;12.776;2023-03-23T00:47:25;324.95;;;69.00;;
31091;SDS011;67728;53.122;12.776;2023-03-23T00:48:58;325.70;;;69.57;;
31091;SDS011;67728;53.122;12.776;2023-03-23T00:50:29;323.50;;;69.07;;
31091;SDS011;67728;53.122;12.776;2023-03-23T00:52:00;324.65;;;68.03;;
31091;SDS011;67728;53.122;12.776;2023-03-23T00:53:34;321.95;;;67.93;;
31091;SDS011;67728;53.122;12.776;2023-03-23T00:55:05;325.95;;;69.60;;
31091;SDS011;67728;53.122;12.776;2023-03-23T00:56:38;326.65;;;69.63;;
31091;SDS011;67728;53.122;12.776;2023-03-23T00:58:10;328.27;;;69.57;;
31091;SDS011;67728;53.122;12.776;2023-03-23T00:59:41;328.27;;;68.88;;
31091;SDS011;67728;53.122;12.776;2023-03-23T01:01:13;326.73;;;69.15;;
31091;SDS011;67728;53.122;12.776;2023-03-23T01:02:46;325.40;;;69.68;;
31091;SDS011;67728;53.122;12.776;2023-03-23T01:04:19;325.63;;;69.47;;
31091;SDS011;67728;53.122;12.776;2023-03-23T01:05:52;323.83;;;68.30;;
31091;SDS011;67728;53.122;12.776;2023-03-23T01:07:22;325.95;;;69.43;;
31091;SDS011;67728;53.122;12.776;2023-03-23T01:08:54;326.33;;;70.10;;
31091;SDS011;67728;53.122;12.776;2023-03-23T01:10:26;324.60;;;69.85;;
31091;SDS011;67728;53.122;12.776;2023-03-23T01:11:57;324.38;;;69.07;;
31091;SDS011;67728;53.122;12.776;2023-03-23T01:13:29;322.88;;;68.75;;
31091;SDS011;67728;53.122;12.776;2023-03-23T01:15:00;325.30;;;69.78;;
31091;SDS011;67728;53.122;12.776;2023-03-23T01:16:31;324.42;;;69.15;;
31091;SDS011;67728;53.122;12.776;2023-03-23T01:18:02;323.08;;;69.35;;
31091;SDS011;67728;53.122;12.776;2023-03-23T01:19:36;326.83;;;70.75;;
31091;SDS011;67728;53.122;12.776;2023-03-23T01:21:09;324.55;;;69.47;;
31091;SDS011;67728;53.122;12.776;2023-03-23T01:22:42;326.27;;;71.18;;
31091;SDS011;67728;53.122;12.776;2023-03-23T01:24:14;326.88;;;72.85;;
31091;SDS011;67728;53.122;12.776;2023-03-23T01:25:45;326.95;;;73.03;;
31091;SDS011;67728;53.122;12.776;2023-03-23T01:27:17;325.70;;;69.60;;
31091;SDS011;67728;53.122;12.776;2023-03-23T01:28:49;328.17;;;70.45;;
31091;SDS011;67728;53.122;12.776;2023-03-23T01:30:21;327.63;;;71.75;;
31091;SDS011;67728;53.122;12.776;2023-03-23T01:31:52;329.77;;;78.75;;
31091;SDS011;67728;53.122;12.776;2023-03-23T01:33:24;327.90;;;70.55;;
31091;SDS011;67728;53.122;12.776;2023-03-23T01:34:57;325.58;;;69.80;;
31091;SDS011;67728;53.122;12.776;2023-03-23T01:36:29;326.02;;;70.53;;
31091;SDS011;67728;53.122;12.776;2023-03-23T01:38:02;329.30;;;73.32;;
31091;SDS011;67728;53.122;12.776;2023-03-23T01:39:35;327.30;;;70.80;;
31091;SDS011;67728;53.122;12.776;2023-03-23T01:41:06;326.85;;;71.25;;
31091;SDS011;67728;53.122;12.776;2023-03-23T01:42:38;326.88;;;74.38;;
31091;SDS011;67728;53.122;12.776;2023-03-23T01:46:15;322.70;;;68.10;;
31091;SDS011;67728;53.122;12.776;2023-03-23T01:47:47;324.27;;;68.90;;
31091;SDS011;67728;53.122;12.776;2023-03-23T01:49:21;326.98;;;69.80;;
31091;SDS011;67728;53.122;12.776;2023-03-23T01:50:59;323.98;;;69.55;;
31091;SDS011;67728;53.122;12.776;2023-03-23T01:52:33;327.38;;;70.93;;
31091;SDS011;67728;53.122;12.776;2023-03-23T01:54:06;329.95;;;71.03;;
31091;SDS011;67728;53.122;12.776;2023-03-23T01:55:41;330.05;;;70.95;;
31091;SDS011;67728;53.122;12.776;2023-03-23T01:57:14;329.25;;;70.35;;
31091;SDS011;67728;53.122;12.776;2023-03-23T01:58:47;325.00;;;69.53;;
31091;SDS011;67728;53.122;12.776;2023-03-23T02:00:19;324.02;;;69.72;;
31091;SDS011;67728;53.122;12.776;2023-03-23T02:01:51;323.67;;;68.70;;
31091;SDS011;67728;53.122;12.776;2023-03-23T02:03:24;327.08;;;69.65;;
31091;SDS011;67728;53.122;12.776;2023-03-23T02:04:57;323.13;;;69.13;;
31091;SDS011;67728;53.122;12.776;2023-03-23T02:06:34;325.90;;;68.90;;
31091;SDS011;67728;53.122;12.776;2023-03-23T02:08:06;329.67;;;70.32;;
31091;SDS011;67728;53.122;12.776;2023-03-23T02:09:38;332.50;;;76.03;;
31091;SDS011;67728;53.122;12.776;2023-03-23T02:11:13;327.23;;;70.07;;
31091;SDS011;67728;53.122;12.776;2023-03-23T02:12:45;325.05;;;68.32;;
31091;SDS011;67728;53.122;12.776;2023-03-23T02:14:16;327.73;;;67.93;;
31091;SDS011;67728;53.122;12.776;2023-03-23T02:15:56;321.67;;;66.53;;
31091;SDS011;67728;53.122;12.776;2023-03-23T02:17:35;326.55;;;69.35;;
31091;SDS011;67728;53.122;12.776;2023-03-23T02:19:24;326.85;;;70.65;;
31091;SDS011;67728;53.122;12.776;2023-03-23T02:21:28;322.17;;;68.43;;
31091;SDS011;67728;53.122;12.776;2023-03-23T02:25:25;323.13;;;66.88;;
31091;SDS011;67728;53.122;12.776;2023-03-23T02:27:12;323.40;;;65.90;;
31091;SDS011;67728;53.122;12.776;2023-03-23T02:28:51;331.70;;;76.70;;
31091;SDS011;67728;53.122;12.776;2023-03-23T02:30:48;324.00;;;69.18;;
31091;SDS011;67728;53.122;12.776;2023-03-23T02:34:32;321.55;;;68.32;;
31091;SDS011;67728;53.122;12.776;2023-03-23T02:36:13;321.23;;;67.35;;
31091;SDS011;67728;53.122;12.776;2023-03-23T02:37:51;322.73;;;66.75;;
31091;SDS011;67728;53.122;12.776;2023-03-23T02:39:28;324.75;;;69.55;;
31091;SDS011;67728;53.122;12.776;2023-03-23T02:41:03;325.65;;;69.00;;
31091;SDS011;67728;53.122;12.776;2023-03-23T02:42:36;324.23;;;69.10;;
31091;SDS011;67728;53.122;12.776;2023-03-23T02:44:11;324.52;;;69.28;;
31091;SDS011;67728;53.122;12.776;2023-03-23T02:45:44;322.98;;;69.80;;
31091;SDS011;67728;53.122;12.776;2023-03-23T02:47:17;323.98;;;68.20;;
31091;SDS011;67728;53.122;12.776;2023-03-23T02:48:53;320.58;;;66.35;;
31091;SDS011;67728;53.122;12.776;2023-03-23T02:50:28;319.83;;;64.63;;
31091;SDS011;67728;53.122;12.776;2023-03-23T02:52:02;320.27;;;64.78;;
31091;SDS011;67728;53.122;12.776;2023-03-23T02:53:42;324.55;;;67.72;;
31091;SDS011;67728;53.122;12.776;2023-03-23T02:55:16;321.65;;;66.55;;
31091;SDS011;67728;53.122;12.776;2023-03-23T02:56:50;320.38;;;65.70;;
31091;SDS011;67728;53.122;12.776;2023-03-23T02:58:24;320.03;;;65.17;;
31091;SDS011;67728;53.122;12.776;2023-03-23T02:59:56;327.90;;;73.47;;
31091;SDS011;67728;53.122;12.776;2023-03-23T03:01:48;317.80;;;64.70;;
31091;SDS011;67728;53.122;12.776;2023-03-23T03:03:25;323.07;;;65.43;;
31091;SDS011;67728;53.122;12.776;2023-03-23T03:05:01;318.60;;;63.73;;
31091;SDS011;67728;53.122;12.776;2023-03-23T03:06:46;322.43;;;68.20;;
31091;SDS011;67728;53.122;12.776;2023-03-23T03:08:26;319.50;;;64.65;;
31091;SDS011;67728;53.122;12.776;2023-03-23T03:10:06;323.23;;;67.17;;
31091;SDS011;67728;53.122;12.776;2023-03-23T03:11:42;319.25;;;65.90;;
31091;SDS011;67728;53.122;12.776;2023-03-23T03:13:22;320.53;;;66.50;;
31091;SDS011;67728;53.122;12.776;2023-03-23T03:15:02;323.63;;;66.80;;
31091;SDS011;67728;53.122;12.776;2023-03-23T03:16:40;318.02;;;65.47;;
31091;SDS011;67728;53.122;12.776;2023-03-23T03:18:16;324.63;;;66.40;;
31091;SDS011;67728;53.122;12.776;2023-03-23T03:19:54;323.67;;;66.97;;
31091;SDS011;67728;53.122;12.776;2023-03-23T03:21:29;322.20;;;66.43;;
31091;SDS011;67728;53.122;12.776;2023-03-23T03:23:05;320.37;;;66.37;;
31091;SDS011;67728;53.122;12.776;2023-03-23T03:24:40;320.67;;;66.83;;
31091;SDS011;67728;53.122;12.776;2023-03-23T03:26:13;321.63;;;66.53;;
31091;SDS011;67728;53.122;12.776;2023-03-23T03:27:47;320.05;;;67.53;;
31091;SDS011;67728;53.122;12.776;2023-03-23T03:29:23;320.27;;;68.13;;
31091;SDS011;67728;53.122;12.776;2023-03-23T03:31:01;320.48;;;67.85;;
31091;SDS011;67728;53.122;12.776;2023-03-23T03:32:36;319.35;;;66.63;;
31091;SDS011;67728;53.122;12.776;2023-03-23T03:34:11;322.07;;;68.83;;
31091;SDS011;67728;53.122;12.776;2023-03-23T03:35:47;321.02;;;67.13;;
31091;SDS011;67728;53.122;12.776;2023-03-23T03:37:19;318.80;;;66.80;;
31091;SDS011;67728;53.122;12.776;2023-03-23T03:38:53;329.53;;;80.13;;
31091;SDS011;67728;53.122;12.776;2023-03-23T03:40:27;318.27;;;67.60;;
31091;SDS011;67728;53.122;12.776;2023-03-23T03:41:59;318.63;;;68.68;;
31091;SDS011;67728;53.122;12.776;2023-03-23T03:43:29;324.35;;;69.45;;
31091;SDS011;67728;53.122;12.776;2023-03-23T03:45:01;319.92;;;68.38;;
31091;SDS011;67728;53.122;12.776;2023-03-23T03:46:32;319.25;;;70.15;;
31091;SDS011;67728;53.122;12.776;2023-03-23T03:48:05;319.90;;;68.60;;
31091;SDS011;67728;53.122;12.776;2023-03-23T03:49:35;322.48;;;69.72;;
31091;SDS011;67728;53.122;12.776;2023-03-23T03:51:07;321.00;;;69.03;;
31091;SDS011;67728;53.122;12.776;2023-03-23T03:52:39;320.13;;;69.45;;
31091;SDS011;67728;53.122;12.776;2023-03-23T03:54:12;320.27;;;70.03;;
31091;SDS011;67728;53.122;12.776;2023-03-23T03:55:45;320.50;;;69.43;;
31091;SDS011;67728;53.122;12.776;2023-03-23T03:57:18;320.08;;;69.00;;
31091;SDS011;67728;53.122;12.776;2023-03-23T03:58:50;319.55;;;69.10;;
31091;SDS011;67728;53.122;12.776;2023-03-23T04:00:22;321.60;;;69.80;;
31091;SDS011;67728;53.122;12.776;2023-03-23T04:01:53;318.65;;;68.05;;
31091;SDS011;67728;53.122;12.776;2023-03-23T04:03:26;318.75;;;68.57;;
31091;SDS011;67728;53.122;12.776;2023-03-23T04:04:58;318.60;;;68.68;;
31091;SDS011;67728;53.122;12.776;2023-03-23T04:06:34;326.58;;;70.10;;
31091;SDS011;67728;53.122;12.776;2023-03-23T04:08:07;321.80;;;69.03;;
31091;SDS011;67728;53.122;12.776;2023-03-23T04:09:41;325.50;;;69.55;;
31091;SDS011;67728;53.122;12.776;2023-03-23T04:11:15;320.07;;;68.23;;
31091;SDS011;67728;53.122;12.776;2023-03-23T04:12:47;317.70;;;69.20;;
31091;SDS011;67728;53.122;12.776;2023-03-23T04:14:19;319.13;;;68.25;;
31091;SDS011;67728;53.122;12.776;2023-03-23T04:15:50;319.30;;;67.97;;
31091;SDS011;67728;53.122;12.776;2023-03-23T04:17:21;321.17;;;68.28;;
31091;SDS011;67728;53.122;12.776;2023-03-23T04:18:56;322.35;;;69.05;;
31091;SDS011;67728;53.122;12.776;2023-03-23T04:20:27;320.13;;;68.53;;
31091;SDS011;67728;53.122;12.776;2023-03-23T04:21:59;317.38;;;66.97;;
31091;SDS011;67728;53.122;12.776;2023-03-23T04:23:30;318.73;;;68.33;;
31091;SDS011;67728;53.122;12.776;2023-03-23T04:25:05;317.50;;;67.53;;
31091;SDS011;67728;53.122;12.776;2023-03-23T04:26:36;318.27;;;66.53;;
31091;SDS011;67728;53.122;12.776;2023-03-23T04:28:10;318.57;;;68.07;;
31091;SDS011;67728;53.122;12.776;2023-03-23T04:29:41;321.08;;;68.18;;
31091;SDS011;67728;53.122;12.776;2023-03-23T04:31:19;318.55;;;67.90;;
31091;SDS011;67728;53.122;12.776;2023-03-23T04:32:54;318.13;;;66.32;;
31091;SDS011;67728;53.122;12.776;2023-03-23T04:34:26;317.35;;;66.95;;
31091;SDS011;67728;53.122;12.776;2023-03-23T04:35:59;317.70;;;66.88;;
31091;SDS011;67728;53.122;12.776;2023-03-23T04:37:32;318.17;;;67.03;;
31091;SDS011;67728;53.122;12.776;2023-03-23T04:39:04;322.33;;;68.35;;
31091;SDS011;67728;53.122;12.776;2023-03-23T04:40:41;317.08;;;66.32;;
31091;SDS011;67728;53.122;12.776;2023-03-23T04:42:14;317.40;;;66.55;;
31091;SDS011;67728;53.122;12.776;2023-03-23T04:43:46;322.70;;;67.33;;
31091;SDS011;67728;53.122;12.776;2023-03-23T04:45:22;317.38;;;66.03;;
31091;SDS011;67728;53.122;12.776;2023-03-23T04:46:54;318.17;;;65.97;;
31091;SDS011;67728;53.122;12.776;2023-03-23T04:48:25;318.20;;;66.20;;
31091;SDS011;67728;53.122;12.776;2023-03-23T04:49:57;317.60;;;67.47;;
31091;SDS011;67728;53.122;12.776;2023-03-23T04:51:28;316.98;;;67.35;;
31091;SDS011;67728;53.122;12.776;2023-03-23T04:53:01;321.73;;;68.13;;
31091;SDS011;67728;53.122;12.776;2023-03-23T04:54:34;319.03;;;67.40;;
31091;SDS011;67728;53.122;12.776;2023-03-23T04:56:07;319.83;;;67.97;;
31091;SDS011;67728;53.122;12.776;2023-03-23T04:57:38;318.13;;;67.30;;
31091;SDS011;67728;53.122;12.776;2023-03-23T04:59:10;323.87;;;68.77;;
31091;SDS011;67728;53.122;12.776;2023-03-23T05:00:43;320.43;;;68.40;;
31091;SDS011;67728;53.122;12.776;2023-03-23T05:02:19;317.15;;;67.53;;
31091;SDS011;67728;53.122;12.776;2023-03-23T05:03:51;317.43;;;67.63;;
31091;SDS011;67728;53.122;12.776;2023-03-23T05:05:22;318.03;;;66.63;;
31091;SDS011;67728;53.122;12.776;2023-03-23T05:06:54;316.17;;;66.03;;
31091;SDS011;67728;53.122;12.776;2023-03-23T05:08:26;317.93;;;66.80;;
31091;SDS011;67728;53.122;12.776;2023-03-23T05:09:58;319.33;;;67.37;;
31091;SDS011;67728;53.122;12.776;2023-03-23T05:11:31;318.50;;;67.57;;
31091;SDS011;67728;53.122;12.776;2023-03-23T05:13:02;319.50;;;67.43;;
31091;SDS011;67728;53.122;12.776;2023-03-23T05:14:34;319.33;;;67.63;;
31091;SDS011;67728;53.122;12.776;2023-03-23T05:16:06;318.33;;;66.77;;
31091;SDS011;67728;53.122;12.776;2023-03-23T05:17:38;317.63;;;67.70;;
31091;SDS011;67728;53.122;12.776;2023-03-23T05:19:10;325.63;;;68.27;;
31091;SDS011;67728;53.122;12.776;2023-03-23T05:20:42;319.30;;;67.93;;
31091;SDS011;67728;53.122;12.776;2023-03-23T05:22:16;319.23;;;67.17;;
31091;SDS011;67728;53.122;12.776;2023-03-23T05:23:50;316.80;;;66.30;;
31091;SDS011;67728;53.122;12.776;2023-03-23T05:25:24;322.00;;;68.17;;
31091;SDS011;67728;53.122;12.776;2023-03-23T05:26:57;318.63;;;68.18;;
31091;SDS011;67728;53.122;12.776;2023-03-23T05:28:28;319.07;;;68.13;;
31091;SDS011;67728;53.122;12.776;2023-03-23T05:30:00;317.23;;;67.17;;
31091;SDS011;67728;53.122;12.776;2023-03-23T05:31:31;317.87;;;67.97;;
31091;SDS011;67728;53.122;12.776;2023-03-23T05:33:03;320.13;;;67.97;;
31091;SDS011;67728;53.122;12.776;2023-03-23T05:34:34;317.67;;;66.40;;
31091;SDS011;67728;53.122;12.776;2023-03-23T05:36:06;319.73;;;68.20;;
31091;SDS011;67728;53.122;12.776;2023-03-23T05:37:40;316.40;;;66.67;;
31091;SDS011;67728;53.122;12.776;2023-03-23T05:39:12;318.77;;;66.67;;
31091;SDS011;67728;53.122;12.776;2023-03-23T05:40:44;317.43;;;71.57;;
31091;SDS011;67728;53.122;12.776;2023-03-23T05:42:17;341.03;;;105.43;;
31091;SDS011;67728;53.122;12.776;2023-03-23T05:43:49;338.00;;;70.05;;
31091;SDS011;67728;53.122;12.776;2023-03-23T05:45:20;318.13;;;66.83;;
31091;SDS011;67728;53.122;12.776;2023-03-23T05:46:52;315.80;;;66.07;;
31091;SDS011;67728;53.122;12.776;2023-03-23T05:48:24;316.33;;;65.50;;
31091;SDS011;67728;53.122;12.776;2023-03-23T05:49:56;317.20;;;66.67;;
31091;SDS011;67728;53.122;12.776;2023-03-23T05:51:28;316.40;;;65.93;;
31091;SDS011;67728;53.122;12.776;2023-03-23T05:53:00;315.40;;;65.68;;
31091;SDS011;67728;53.122;12.776;2023-03-23T05:54:33;318.77;;;66.63;;
31091;SDS011;67728;53.122;12.776;2023-03-23T05:56:05;320.70;;;67.13;;
31091;SDS011;67728;53.122;12.776;2023-03-23T05:57:39;318.23;;;65.83;;
31091;SDS011;67728;53.122;12.776;2023-03-23T05:59:11;319.37;;;67.00;;
31091;SDS011;67728;53.122;12.776;2023-03-23T06:00:43;315.43;;;65.67;;
31091;SDS011;67728;53.122;12.776;2023-03-23T06:02:15;316.77;;;66.70;;
31091;SDS011;67728;53.122;12.776;2023-03-23T06:03:47;316.77;;;67.00;;
31091;SDS011;67728;53.122;12.776;2023-03-23T06:05:21;318.40;;;69.30;;
31091;SDS011;67728;53.122;12.776;2023-03-23T06:06:53;314.70;;;64.80;;
31091;SDS011;67728;53.122;12.776;2023-03-23T06:08:25;319.80;;;66.73;;
31091;SDS011;67728;53.122;12.776;2023-03-23T06:09:57;317.53;;;68.93;;
31091;SDS011;67728;53.122;12.776;2023-03-23T06:11:29;313.85;;;64.32;;
31091;SDS011;67728;53.122;12.776;2023-03-23T06:13:02;316.83;;;65.57;;
31091;SDS011;67728;53.122;12.776;2023-03-23T06:14:34;323.57;;;74.33;;
31091;SDS011;67728;53.122;12.776;2023-03-23T06:16:06;318.50;;;66.17;;
31091;SDS011;67728;53.122;12.776;2023-03-23T06:17:38;315.30;;;65.20;;
31091;SDS011;67728;53.122;12.776;2023-03-23T06:19:10;313.73;;;63.97;;
31091;SDS011;67728;53.122;12.776;2023-03-23T06:20:42;315.20;;;64.87;;
31091;SDS011;67728;53.122;12.776;2023-03-23T06:22:15;319.57;;;66.53;;
31091;SDS011;67728;53.122;12.776;2023-03-23T06:23:47;315.70;;;62.83;;
31091;SDS011;67728;53.122;12.776;2023-03-23T06:25:18;315.20;;;63.63;;
31091;SDS011;67728;53.122;12.776;2023-03-23T06:26:50;313.50;;;62.07;;
31091;SDS011;67728;53.122;12.776;2023-03-23T06:28:23;314.83;;;63.57;;
31091;SDS011;67728;53.122;12.776;2023-03-23T06:29:55;314.80;;;63.43;;
31091;SDS011;67728;53.122;12.776;2023-03-23T06:31:27;314.20;;;63.10;;
31091;SDS011;67728;53.122;12.776;2023-03-23T06:32:59;313.57;;;62.60;;
31091;SDS011;67728;53.122;12.776;2023-03-23T06:34:32;313.53;;;63.60;;
31091;SDS011;67728;53.122;12.776;2023-03-23T06:36:04;313.20;;;62.50;;
31091;SDS011;67728;53.122;12.776;2023-03-23T06:37:36;316.27;;;63.07;;
31091;SDS011;67728;53.122;12.776;2023-03-23T06:39:08;321.87;;;79.70;;
31091;SDS011;67728;53.122;12.776;2023-03-23T06:40:39;314.67;;;64.05;;
31091;SDS011;67728;53.122;12.776;2023-03-23T06:42:11;316.00;;;63.53;;
31091;SDS011;67728;53.122;12.776;2023-03-23T06:43:45;317.90;;;64.90;;
31091;SDS011;67728;53.122;12.776;2023-03-23T06:45:16;314.63;;;64.13;;
31091;SDS011;67728;53.122;12.776;2023-03-23T06:46:49;316.63;;;64.07;;
31091;SDS011;67728;53.122;12.776;2023-03-23T06:48:21;315.97;;;63.80;;
31091;SDS011;67728;53.122;12.776;2023-03-23T06:49:53;317.97;;;64.20;;
31091;SDS011;67728;53.122;12.776;2023-03-23T06:51:25;315.60;;;63.90;;
31091;SDS011;67728;53.122;12.776;2023-03-23T06:52:56;316.30;;;63.60;;
31091;SDS011;67728;53.122;12.776;2023-03-23T06:54:28;312.65;;;62.63;;
31091;SDS011;67728;53.122;12.776;2023-03-23T06:56:00;313.77;;;62.67;;
31091;SDS011;67728;53.122;12.776;2023-03-23T06:57:31;316.03;;;69.60;;
31091;SDS011;67728;53.122;12.776;2023-03-23T06:59:05;313.97;;;63.57;;
31091;SDS011;67728;53.122;12.776;2023-03-23T07:00:37;313.30;;;63.03;;
31091;SDS011;67728;53.122;12.776;2023-03-23T07:02:10;313.33;;;63.03;;
31091;SDS011;67728;53.122;12.776;2023-03-23T07:03:42;316.23;;;68.60;;
31091;SDS011;67728;53.122;12.776;2023-03-23T07:05:14;315.57;;;67.27;;
31091;SDS011;67728;53.122;12.776;2023-03-23T07:06:46;317.57;;;67.13;;
31091;SDS011;67728;53.122;12.776;2023-03-23T07:08:18;311.53;;;65.93;;
31091;SDS011;67728;53.122;12.776;2023-03-23T07:09:49;317.30;;;66.77;;
31091;SDS011;67728;53.122;12.776;2023-03-23T07:11:21;323.33;;;74.33;;
31091;SDS011;67728;53.122;12.776;2023-03-23T07:12:53;316.45;;;67.10;;
31091;SDS011;67728;53.122;12.776;2023-03-23T07:14:26;318.85;;;67.88;;
31091;SDS011;67728;53.122;12.776;2023-03-23T07:15:57;316.97;;;68.40;;
31091;SDS011;67728;53.122;12.776;2023-03-23T07:17:29;317.40;;;70.27;;
31091;SDS011;67728;53.122;12.776;2023-03-23T07:19:01;321.33;;;69.63;;
31091;SDS011;67728;53.122;12.776;2023-03-23T07:20:33;321.60;;;71.23;;
31091;SDS011;67728;53.122;12.776;2023-03-23T07:22:06;321.80;;;70.10;;
31091;SDS011;67728;53.122;12.776;2023-03-23T07:23:38;318.02;;;69.43;;
31091;SDS011;67728;53.122;12.776;2023-03-23T07:25:10;319.42;;;69.50;;
31091;SDS011;67728;53.122;12.776;2023-03-23T07:26:42;319.55;;;69.93;;
31091;SDS011;67728;53.122;12.776;2023-03-23T07:28:13;320.07;;;70.13;;
31091;SDS011;67728;53.122;12.776;2023-03-23T07:29:47;325.23;;;71.72;;
31091;SDS011;67728;53.122;12.776;2023-03-23T07:31:19;321.02;;;70.00;;
31091;SDS011;67728;53.122;12.776;2023-03-23T07:32:50;320.75;;;69.65;;
31091;SDS011;67728;53.122;12.776;2023-03-23T07:34:22;320.80;;;70.30;;
31091;SDS011;67728;53.122;12.776;2023-03-23T07:35:54;318.23;;;68.63;;
31091;SDS011;67728;53.122;12.776;2023-03-23T07:37:25;315.73;;;67.77;;
31091;SDS011;67728;53.122;12.776;2023-03-23T07:38:58;317.10;;;70.27;;
31091;SDS011;67728;53.122;12.776;2023-03-23T07:40:30;317.80;;;69.83;;
31091;SDS011;67728;53.122;12.776;2023-03-23T07:42:03;319.40;;;69.27;;
31091;SDS011;67728;53.122;12.776;2023-03-23T07:43:37;319.40;;;69.50;;
31091;SDS011;67728;53.122;12.776;2023-03-23T07:45:10;320.52;;;69.60;;
31091;SDS011;67728;53.122;12.776;2023-03-23T07:46:42;319.43;;;70.67;;
31091;SDS011;67728;53.122;12.776;2023-03-23T07:48:14;319.83;;;71.10;;
31091;SDS011;67728;53.122;12.776;2023-03-23T07:49:46;323.48;;;70.88;;
31091;SDS011;67728;53.122;12.776;2023-03-23T07:51:17;320.17;;;68.28;;
31091;SDS011;67728;53.122;12.776;2023-03-23T07:52:49;320.40;;;68.63;;
31091;SDS011;67728;53.122;12.776;2023-03-23T07:54:21;319.17;;;69.50;;
31091;SDS011;67728;53.122;12.776;2023-03-23T07:55:52;319.95;;;69.82;;
31091;SDS011;67728;53.122;12.776;2023-03-23T07:57:24;325.73;;;71.38;;
31091;SDS011;67728;53.122;12.776;2023-03-23T07:58:56;318.45;;;68.53;;
31091;SDS011;67728;53.122;12.776;2023-03-23T08:00:29;320.67;;;71.13;;
31091;SDS011;67728;53.122;12.776;2023-03-23T08:02:02;322.23;;;67.90;;
31091;SDS011;67728;53.122;12.776;2023-03-23T08:03:35;318.63;;;65.70;;
31091;SDS011;67728;53.122;12.776;2023-03-23T08:05:07;325.60;;;68.53;;
31091;SDS011;67728;53.122;12.776;2023-03-23T08:06:40;321.70;;;67.90;;
31091;SDS011;67728;53.122;12.776;2023-03-23T08:08:12;322.00;;;67.18;;
31091;SDS011;67728;53.122;12.776;2023-03-23T08:09:44;322.90;;;68.72;;
31091;SDS011;67728;53.122;12.776;2023-03-23T08:11:16;323.25;;;69.03;;
31091;SDS011;67728;53.122;12.776;2023-03-23T08:12:50;323.67;;;67.75;;
31091;SDS011;67728;53.122;12.776;2023-03-23T08:14:23;317.55;;;66.78;;
31091;SDS011;67728;53.122;12.776;2023-03-23T08:15:59;321.60;;;70.97;;
31091;SDS011;67728;53.122;12.776;2023-03-23T08:17:33;320.83;;;68.65;;
31091;SDS011;67728;53.122;12.776;2023-03-23T08:19:06;320.55;;;70.25;;
31091;SDS011;67728;53.122;12.776;2023-03-23T08:20:38;322.20;;;77.23;;
31091;SDS011;67728;53.122;12.776;2023-03-23T08:22:10;337.00;;;94.53;;
31091;SDS011;67728;53.122;12.776;2023-03-23T08:23:43;319.73;;;71.23;;
31091;SDS011;67728;53.122;12.776;2023-03-23T08:25:16;323.67;;;73.20;;
31091;SDS011;67728;53.122;12.776;2023-03-23T08:26:48;321.80;;;72.60;;
31091;SDS011;67728;53.122;12.776;2023-03-23T08:28:20;320.55;;;72.68;;
31091;SDS011;67728;53.122;12.776;2023-03-23T08:29:52;321.33;;;73.47;;
31091;SDS011;67728;53.122;12.776;2023-03-23T08:31:26;322.03;;;72.07;;
31091;SDS011;67728;53.122;12.776;2023-03-23T08:32:58;320.40;;;72.27;;
31091;SDS011;67728;53.122;12.776;2023-03-23T08:34:31;320.07;;;71.90;;
31091;SDS011;67728;53.122;12.776;2023-03-23T08:36:06;320.40;;;70.20;;
31091;SDS011;67728;53.122;12.776;2023-03-23T08:37:52;321.33;;;71.37;;
31091;SDS011;67728;53.122;12.776;2023-03-23T08:39:33;321.83;;;75.83;;
31091;SDS011;67728;53.122;12.776;2023-03-23T08:41:18;322.03;;;73.23;;
31091;SDS011;67728;53.122;12.776;2023-03-23T08:42:51;322.67;;;74.27;;
31091;SDS011;67728;53.122;12.776;2023-03-23T08:44:23;320.17;;;72.68;;
31091;SDS011;67728;53.122;12.776;2023-03-23T08:45:55;321.93;;;72.40;;
31091;SDS011;67728;53.122;12.776;2023-03-23T08:47:31;316.43;;;71.07;;
31091;SDS011;67728;53.122;12.776;2023-03-23T08:49:03;317.37;;;69.40;;
31091;SDS011;67728;53.122;12.776;2023-03-23T08:50:35;326.57;;;75.77;;
31091;SDS011;67728;53.122;12.776;2023-03-23T08:52:08;323.50;;;71.30;;
31091;SDS011;67728;53.122;12.776;2023-03-23T08:53:40;318.17;;;70.77;;
31091;SDS011;67728;53.122;12.776;2023-03-23T08:55:12;321.27;;;73.07;;
31091;SDS011;67728;53.122;12.776;2023-03-23T08:56:45;318.00;;;70.90;;